Time;durP1;ratioP1;P1;durP2;ratioP2;P2;SDS_P1;SDS_P2;PMS_P1;PMS_P2;Temp;Humidity;BMP_temperature;BMP_pressure;BME280_temperature;BME280_humidity;BME280_pressure;Samples;Min_cycle;Max_cycle;Signal;HPM_P1;HPM_P2
2023/06/07 00:01:43;;;;;;;5.47;3.17;;;;;;;22.81;65.43;100206.38;5091167;28;20086;-65
2023/06/07 00:04:12;;;;;;;5.32;3.15;;;;;;;22.81;65.28;100209.06;5091334;28;20048;-65
2023/06/07 00:06:40;;;;;;;5.25;2.97;;;;;;;22.81;65.10;100214.53;5091432;28;20045;-65
2023/06/07 00:09:10;;;;;;;4.75;3.10;;;;;;;22.81;65.11;100215.38;5091068;28;20117;-66
2023/06/07 00:11:38;;;;;;;4.40;2.95;;;;;;;22.79;65.04;100200.25;5091192;28;20136;-65
2023/06/07 00:14:07;;;;;;;4.35;2.95;;;;;;;22.80;64.98;100208.22;5091051;28;20512;-66
2023/06/07 00:16:35;;;;;;;4.18;3.13;;;;;;;22.80;64.94;100207.38;5091256;28;20123;-65
2023/06/07 00:19:03;;;;;;;4.95;3.13;;;;;;;22.80;64.74;100202.78;5091450;28;20044;-65
2023/06/07 00:21:32;;;;;;;5.28;3.03;;;;;;;22.81;64.98;100203.63;5091167;28;20076;-65
2023/06/07 00:24:00;;;;;;;4.45;2.90;;;;;;;22.80;65.12;100197.34;5090998;28;20055;-65
2023/06/07 00:26:30;;;;;;;7.22;3.22;;;;;;;22.79;65.00;100195.66;5091110;28;20071;-65
2023/06/07 00:28:58;;;;;;;5.35;3.40;;;;;;;22.79;64.89;100187.50;5090896;28;20083;-65
2023/06/07 00:31:26;;;;;;;5.03;2.83;;;;;;;22.80;64.81;100191.06;5091133;28;20048;-65
2023/06/07 00:33:54;;;;;;;5.97;3.33;;;;;;;22.79;65.02;100184.78;5091051;28;20071;-65
2023/06/07 00:36:22;;;;;;;4.50;3.13;;;;;;;22.79;64.91;100186.66;5090996;28;20048;-65
2023/06/07 00:38:51;;;;;;;4.47;3.17;;;;;;;22.78;64.95;100188.53;5090955;28;20139;-65
2023/06/07 00:41:20;;;;;;;5.20;3.30;;;;;;;22.78;64.92;100185.81;5090902;28;20086;-65
2023/06/07 00:43:49;;;;;;;4.53;3.13;;;;;;;22.78;64.71;100191.25;5090754;28;20534;-65
2023/06/07 00:46:21;;;;;;;5.22;3.00;;;;;;;22.77;64.98;100197.69;5090998;28;20467;-65
2023/06/07 00:48:51;;;;;;;5.93;2.83;;;;;;;22.77;64.91;100197.69;5090683;28;20052;-65
2023/06/07 00:51:20;;;;;;;4.55;2.92;;;;;;;22.77;64.85;100197.69;5090843;28;20148;-66
2023/06/07 00:53:50;;;;;;;5.18;3.35;;;;;;;22.76;64.94;100195.97;5091426;28;20126;-66
2023/06/07 00:56:18;;;;;;;4.45;3.05;;;;;;;22.77;65.20;100196.84;5094493;28;20465;-66
2023/06/07 00:58:47;;;;;;;5.47;3.13;;;;;;;22.76;65.09;100190.53;5094560;28;20055;-66
2023/06/07 01:01:18;;;;;;;5.13;3.17;;;;;;;22.76;65.19;100195.97;5094455;28;20519;-65
2023/06/07 01:03:46;;;;;;;7.47;3.08;;;;;;;22.76;65.26;100204.13;5094468;28;20429;-66
2023/06/07 01:06:15;;;;;;;6.82;3.20;;;;;;;22.76;65.34;100195.13;5094158;28;20044;-66
2023/06/07 01:08:44;;;;;;;5.20;3.15;;;;;;;22.76;65.07;100195.13;5094189;28;20139;-66
2023/06/07 01:11:13;;;;;;;5.72;3.15;;;;;;;22.75;65.24;100188.84;5094497;28;20101;-66
2023/06/07 01:13:42;;;;;;;5.38;3.00;;;;;;;22.74;65.10;100187.16;5094309;28;20500;-65
2023/06/07 01:16:11;;;;;;;4.30;2.97;;;;;;;22.74;65.13;100192.59;5094238;28;20044;-66
2023/06/07 01:18:42;;;;;;;5.57;3.10;;;;;;;22.73;65.10;100180.03;5094093;28;20056;-66
2023/06/07 01:21:13;;;;;;;5.07;2.75;;;;;;;22.72;64.98;100175.63;5094273;28;20139;-66
2023/06/07 01:23:43;;;;;;;5.00;2.97;;;;;;;22.73;65.27;100174.59;5094127;28;20040;-66
2023/06/07 01:26:12;;;;;;;5.78;3.50;;;;;;;22.73;65.17;100174.59;5094045;28;20044;-66
2023/06/07 01:28:44;;;;;;;4.57;3.13;;;;;;;22.71;65.11;100171.19;5093900;28;20094;-66
2023/06/07 01:31:14;;;;;;;6.88;3.20;;;;;;;22.72;65.15;100167.47;5093858;28;20047;-66
2023/06/07 01:33:43;;;;;;;4.88;2.90;;;;;;;22.73;65.11;100173.75;5093677;28;20060;-66
2023/06/07 01:36:12;;;;;;;5.03;2.90;;;;;;;22.71;65.19;100171.19;5093942;28;20102;-66
2023/06/07 01:38:41;;;;;;;6.20;3.15;;;;;;;22.71;65.42;100171.19;5093876;28;20121;-66
2023/06/07 01:41:12;;;;;;;5.65;3.10;;;;;;;22.70;65.45;100169.50;5093652;28;20086;-66
2023/06/07 01:43:41;;;;;;;4.32;2.85;;;;;;;22.69;65.48;100166.97;5093612;28;20052;-66
2023/06/07 01:46:10;;;;;;;5.50;3.45;;;;;;;22.68;65.51;100159.81;5093505;28;20052;-66
2023/06/07 01:48:38;;;;;;;4.53;3.25;;;;;;;22.70;65.41;100168.66;5093728;28;20044;-66
2023/06/07 01:51:06;;;;;;;5.63;3.47;;;;;;;22.68;65.38;100162.53;5093548;28;20052;-66
2023/06/07 01:53:35;;;;;;;5.57;3.72;;;;;;;22.68;65.37;100160.69;5093492;28;20044;-66
2023/06/07 01:56:11;;;;;;;5.85;3.78;;;;;;;22.67;65.57;100158.97;5093304;28;20097;-66
2023/06/07 01:58:51;;;;;;;6.00;3.20;;;;;;;22.67;65.66;100164.38;5093293;28;20044;-66
2023/06/07 02:01:29;;;;;;;4.53;3.10;;;;;;;22.67;65.56;100158.97;5093462;28;20044;-66
2023/06/07 02:04:01;;;;;;;6.82;3.35;;;;;;;22.65;65.64;100163.72;5093280;28;20083;-66
2023/06/07 02:06:33;;;;;;;4.72;3.28;;;;;;;22.65;65.66;100163.72;5092157;28;20079;-66
2023/06/07 02:09:06;;;;;;;5.65;3.17;;;;;;;22.66;65.57;100164.56;5092877;28;20420;-66
2023/06/07 02:11:37;;;;;;;4.95;3.60;;;;;;;22.65;65.45;100165.59;5093372;28;20044;-66
2023/06/07 02:14:07;;;;;;;5.53;3.30;;;;;;;22.65;65.30;100161.00;5093254;28;20084;-66
2023/06/07 02:16:37;;;;;;;5.85;3.38;;;;;;;22.65;65.44;100161.00;5092883;28;20064;-66
2023/06/07 02:19:06;;;;;;;5.07;3.10;;;;;;;22.65;65.27;100168.31;5092941;28;20051;-66
2023/06/07 02:21:35;;;;;;;5.80;3.50;;;;;;;22.65;65.46;100166.44;5092776;28;20131;-66
2023/06/07 02:24:03;;;;;;;4.70;3.30;;;;;;;22.64;65.53;100159.31;5093030;28;20402;-66
2023/06/07 02:26:32;;;;;;;5.07;3.45;;;;;;;22.63;65.37;100154.91;5092650;28;20127;-66
2023/06/07 02:29:01;;;;;;;5.45;3.05;;;;;;;22.64;65.32;100162.03;5092837;28;20059;-66
2023/06/07 02:31:31;;;;;;;4.72;3.40;;;;;;;22.64;65.45;100164.75;5092597;28;20052;-66
2023/06/07 02:33:59;;;;;;;4.88;3.20;;;;;;;22.63;65.46;100160.34;5092716;28;20048;-65
2023/06/07 02:36:32;;;;;;;5.55;3.30;;;;;;;22.62;65.58;100161.34;5092382;28;20047;-67
2023/06/07 02:39:01;;;;;;;6.50;3.70;;;;;;;22.62;65.34;100161.34;5092683;28;20044;-66
2023/06/07 02:41:29;;;;;;;6.78;3.25;;;;;;;22.62;65.42;100161.34;5092543;28;20052;-65
2023/06/07 02:44:00;;;;;;;6.97;3.75;;;;;;;22.62;65.43;100158.63;5092458;28;20078;-64
2023/06/07 02:46:28;;;;;;;5.40;3.28;;;;;;;22.62;65.72;100155.91;5092357;28;20048;-64
2023/06/07 02:48:58;;;;;;;5.13;3.33;;;;;;;22.61;65.77;100159.66;5092167;28;20055;-66
2023/06/07 02:51:26;;;;;;;4.63;3.08;;;;;;;22.62;65.50;100163.22;5092264;28;20048;-66
2023/06/07 02:53:56;;;;;;;5.10;3.28;;;;;;;22.62;65.40;100155.06;5092359;28;20395;-66
2023/06/07 02:56:25;;;;;;;6.30;3.20;;;;;;;22.60;65.57;100155.25;5092182;28;20071;-66
2023/06/07 02:58:54;;;;;;;4.60;3.40;;;;;;;22.60;65.59;100155.25;5092116;28;20080;-66
2023/06/07 03:01:22;;;;;;;5.75;3.33;;;;;;;22.60;65.33;100168.84;5091979;28;20509;-66
2023/06/07 03:03:50;;;;;;;5.45;3.20;;;;;;;22.59;65.54;100156.28;5092113;28;20480;-65
2023/06/07 03:06:20;;;;;;;5.90;3.25;;;;;;;22.59;65.57;100161.72;5091874;28;20503;-66
2023/06/07 03:08:48;;;;;;;4.80;3.28;;;;;;;22.60;65.66;100160.69;5091931;28;20097;-65
2023/06/07 03:11:16;;;;;;;5.07;3.35;;;;;;;22.59;65.82;100167.16;5091841;28;20044;-66
2023/06/07 03:13:47;;;;;;;6.13;3.13;;;;;;;22.59;65.66;100167.16;5091903;28;20048;-66
2023/06/07 03:16:16;;;;;;;7.63;3.80;;;;;;;22.59;65.86;100167.16;5091597;28;20055;-66
2023/06/07 03:18:44;;;;;;;6.32;3.80;;;;;;;22.58;65.93;100170.84;5092128;28;20051;-66
2023/06/07 03:21:12;;;;;;;5.80;3.45;;;;;;;22.59;65.84;100172.59;5092324;28;20451;-66
2023/06/07 03:23:42;;;;;;;6.55;3.95;;;;;;;22.58;65.79;100170.84;5091801;28;20139;-66
2023/06/07 03:26:10;;;;;;;4.88;3.50;;;;;;;22.57;65.83;100174.59;5091793;28;20456;-66
2023/06/07 03:28:39;;;;;;;6.93;3.83;;;;;;;22.56;65.92;100167.47;5091585;28;20051;-66
2023/06/07 03:31:07;;;;;;;6.18;3.92;;;;;;;22.57;65.87;100177.31;5091742;28;20052;-66
2023/06/07 03:33:35;;;;;;;5.68;3.72;;;;;;;22.57;65.93;100177.31;5091778;28;20082;-66
2023/06/07 03:36:07;;;;;;;6.70;3.35;;;;;;;22.56;65.76;100178.34;5091432;28;20056;-66
2023/06/07 03:38:35;;;;;;;5.38;3.25;;;;;;;22.57;65.79;100180.03;5091458;28;20062;-66
2023/06/07 03:41:05;;;;;;;8.65;3.40;;;;;;;22.56;65.75;100181.06;5091467;28;20044;-66
2023/06/07 03:43:33;;;;;;;5.18;3.28;;;;;;;22.57;65.78;100180.03;5091573;28;20052;-66
2023/06/07 03:46:01;;;;;;;6.30;3.50;;;;;;;22.52;65.79;100177.84;5091517;28;20090;-66
2023/06/07 03:48:29;;;;;;;6.55;3.78;;;;;;;22.52;65.70;100182.44;5091539;28;20098;-66
2023/06/07 03:50:58;;;;;;;5.10;3.33;;;;;;;22.53;65.56;100189.56;5091173;28;20050;-66
2023/06/07 03:53:26;;;;;;;5.32;3.50;;;;;;;22.53;65.33;100184.13;5091257;28;20040;-65
2023/06/07 03:55:55;;;;;;;4.85;3.22;;;;;;;22.53;65.42;100189.56;5091197;28;20044;-66
2023/06/07 03:58:24;;;;;;;5.40;3.20;;;;;;;22.52;65.38;100187.88;5091435;28;20054;-66
2023/06/07 04:00:53;;;;;;;4.97;3.08;;;;;;;22.52;65.23;100193.31;5091411;28;20079;-66
2023/06/07 04:03:24;;;;;;;4.47;3.17;;;;;;;22.52;65.06;100190.59;5091335;28;20454;-66
2023/06/07 04:05:52;;;;;;;5.38;3.45;;;;;;;22.52;65.22;100187.88;5091184;28;20123;-66
2023/06/07 04:08:21;;;;;;;6.40;3.00;;;;;;;22.52;65.04;100179.72;5090995;28;20067;-66
2023/06/07 04:10:49;;;;;;;5.03;3.25;;;;;;;22.53;64.60;100189.56;5091240;28;20799;-66
2023/06/07 04:13:17;;;;;;;5.53;3.10;;;;;;;22.52;64.79;100183.28;5091294;28;20060;-66
2023/06/07 04:15:47;;;;;;;4.80;2.90;;;;;;;22.52;64.69;100179.72;5091196;28;20054;-66
2023/06/07 04:18:15;;;;;;;6.72;3.30;;;;;;;22.52;64.75;100182.44;5090848;28;20123;-65
2023/06/07 04:20:43;;;;;;;4.45;3.10;;;;;;;22.51;64.71;100184.31;5091170;28;20436;-66
2023/06/07 04:23:11;;;;;;;5.32;3.50;;;;;;;22.52;64.63;100185.16;5091323;28;20132;-66
2023/06/07 04:25:39;;;;;;;4.55;2.92;;;;;;;22.53;64.62;100195.00;5091027;28;20040;-66
2023/06/07 04:28:10;;;;;;;5.65;3.03;;;;;;;22.53;64.45;100189.56;5091125;28;20058;-66
2023/06/07 04:30:40;;;;;;;5.28;2.88;;;;;;;22.51;64.46;100192.47;5094754;28;20052;-65
2023/06/07 04:33:13;;;;;;;5.40;3.15;;;;;;;22.52;64.39;100187.88;5095049;28;20397;-66
2023/06/07 04:35:42;;;;;;;4.30;2.78;;;;;;;22.51;64.34;100191.63;5094895;28;20492;-66
2023/06/07 04:38:12;;;;;;;4.88;2.70;;;;;;;22.50;64.12;100190.75;5095067;28;20067;-66
2023/06/07 04:40:42;;;;;;;3.83;2.67;;;;;;;22.51;63.97;100188.91;5094912;28;20052;-65
2023/06/07 04:43:10;;;;;;;5.00;3.13;;;;;;;22.51;64.15;100191.63;5095081;28;20403;-66
2023/06/07 04:45:41;;;;;;;5.15;3.00;;;;;;;22.51;63.96;100191.63;5094677;28;20101;-66
2023/06/07 04:48:12;;;;;;;5.15;3.00;;;;;;;22.50;64.00;100185.31;5094634;28;20040;-65
2023/06/07 04:50:42;;;;;;;4.60;2.90;;;;;;;22.50;63.91;100196.19;5094898;28;20473;-65
2023/06/07 04:53:10;;;;;;;7.65;2.97;;;;;;;22.51;63.89;100188.91;5094639;28;20052;-65
2023/06/07 04:55:41;;;;;;;5.43;2.85;;;;;;;22.51;63.64;100191.63;5094586;28;20048;-65
2023/06/07 04:58:09;;;;;;;5.07;3.00;;;;;;;22.52;63.83;100193.31;5094276;28;20097;-65
2023/06/07 05:00:39;;;;;;;4.22;2.65;;;;;;;22.51;63.60;100195.19;5094285;28;20147;-65
2023/06/07 05:03:08;;;;;;;5.03;2.92;;;;;;;22.51;63.63;100203.34;5094344;28;20516;-65
2023/06/07 05:05:38;;;;;;;4.43;2.90;;;;;;;22.52;63.57;100204.19;5094292;28;20473;-65
2023/06/07 05:08:06;;;;;;;4.30;2.63;;;;;;;22.52;63.52;100210.47;5094129;28;20131;-65
2023/06/07 05:10:34;;;;;;;4.68;2.92;;;;;;;22.52;63.57;100209.63;5094209;28;20050;-66
2023/06/07 05:13:03;;;;;;;6.68;2.65;;;;;;;22.53;63.46;100200.44;5094007;28;20044;-66
2023/06/07 05:15:32;;;;;;;4.35;2.80;;;;;;;22.52;63.46;100210.47;5094172;28;20119;-66
2023/06/07 05:18:01;;;;;;;3.92;2.80;;;;;;;22.53;63.30;100214.03;5094059;28;20044;-66
2023/06/07 05:20:32;;;;;;;4.65;3.10;;;;;;;22.53;63.47;100203.16;5093803;28;20113;-65
2023/06/07 05:23:02;;;;;;;4.75;2.50;;;;;;;22.53;63.26;100206.72;5093793;28;20044;-65
2023/06/07 05:25:31;;;;;;;3.80;2.80;;;;;;;22.54;63.34;100199.41;5093410;28;20378;-65
2023/06/07 05:27:59;;;;;;;4.80;2.50;;;;;;;22.53;63.44;100200.44;5093565;28;20054;-65
2023/06/07 05:30:41;;;;;;;6.70;3.13;;;;;;;22.54;63.30;100191.25;5093596;28;20101;-66
2023/06/07 05:33:09;;;;;;;5.47;3.00;;;;;;;22.54;63.28;100192.09;5093854;28;20075;-65
2023/06/07 05:35:37;;;;;;;4.30;2.55;;;;;;;22.55;63.23;100195.69;5093419;28;20084;-66
2023/06/07 05:38:08;;;;;;;5.00;3.00;;;;;;;22.55;63.00;100193.81;5092037;28;20836;-65
2023/06/07 05:40:36;;;;;;;4.22;2.70;;;;;;;22.55;63.21;100193.81;5093448;28;20056;-65
2023/06/07 05:43:06;;;;;;;5.53;2.88;;;;;;;22.55;63.18;100199.25;5093271;28;20461;-65
2023/06/07 05:45:34;;;;;;;4.57;2.70;;;;;;;22.57;63.78;100201.78;5093142;28;20064;-65
2023/06/07 05:48:02;;;;;;;4.70;3.10;;;;;;;22.57;63.88;100202.63;5093336;28;20067;-65
2023/06/07 05:50:30;;;;;;;6.40;3.10;;;;;;;22.58;63.88;100208.91;5093224;28;20139;-65
2023/06/07 05:52:59;;;;;;;7.32;2.90;;;;;;;22.59;64.13;100202.50;5093291;28;20083;-65
2023/06/07 05:55:29;;;;;;;6.80;2.85;;;;;;;22.60;64.49;100206.06;5093567;28;20154;-65
2023/06/07 05:58:00;;;;;;;6.53;3.00;;;;;;;22.60;64.76;100206.91;5093212;28;20052;-65
2023/06/07 06:00:28;;;;;;;5.10;2.80;;;;;;;22.62;64.67;100210.28;5093087;28;20098;-63
2023/06/07 06:03:00;;;;;;;5.40;3.13;;;;;;;22.61;64.90;100208.59;5091992;28;20412;-65
2023/06/07 06:05:29;;;;;;;5.88;2.75;;;;;;;22.63;64.67;100217.41;5089419;28;20044;-67
2023/06/07 06:07:58;;;;;;;4.68;2.78;;;;;;;22.64;64.60;100210.97;5092229;28;20085;-64
2023/06/07 06:10:28;;;;;;;5.30;2.92;;;;;;;22.65;64.54;100214.53;5088194;28;20132;-64
2023/06/07 06:12:56;;;;;;;7.55;2.97;;;;;;;22.65;64.64;100209.94;5088175;28;20058;-66
2023/06/07 06:15:24;;;;;;;5.18;3.00;;;;;;;22.66;64.78;100211.63;5091880;28;20078;-63
2023/06/07 06:17:54;;;;;;;7.35;2.78;;;;;;;22.65;64.41;100209.94;5092292;28;20044;-63
2023/06/07 06:20:23;;;;;;;7.25;3.15;;;;;;;22.64;64.03;100213.69;5092736;28;20044;-65
2023/06/07 06:22:51;;;;;;;6.90;3.10;;;;;;;22.65;64.08;100211.81;5092233;28;20040;-65
2023/06/07 06:25:19;;;;;;;4.95;2.78;;;;;;;22.64;64.01;100219.13;5092511;28;20044;-65
2023/06/07 06:27:52;;;;;;;5.65;2.70;;;;;;;22.65;64.29;100220.81;5092143;28;20055;-66
2023/06/07 06:30:20;;;;;;;7.05;3.08;;;;;;;22.66;64.13;100227.09;5092710;28;20101;-66
2023/06/07 06:32:49;;;;;;;6.88;3.30;;;;;;;22.66;63.92;100221.66;5092625;28;20059;-65
2023/06/07 06:35:20;;;;;;;5.40;2.97;;;;;;;22.66;63.98;100224.38;5092451;28;20068;-66
2023/06/07 06:37:48;;;;;;;8.43;3.88;;;;;;;22.65;63.77;100218.09;5092415;28;20084;-66
2023/06/07 06:40:18;;;;;;;10.05;3.97;;;;;;;22.64;63.72;100216.41;5092240;28;20070;-66
2023/06/07 06:42:46;;;;;;;8.80;3.47;;;;;;;22.66;64.06;100214.34;5092363;28;20048;-66
2023/06/07 06:45:16;;;;;;;6.18;3.60;;;;;;;22.69;63.97;100219.47;5092089;28;20097;-66
2023/06/07 06:47:44;;;;;;;7.45;3.45;;;;;;;22.70;63.95;100223.88;5091989;28;20477;-66
2023/06/07 06:50:14;;;;;;;9.38;4.00;;;;;;;22.71;63.89;100220.13;5092400;28;20117;-66
2023/06/07 06:53:00;;;;;;;9.15;3.60;;;;;;;22.72;63.95;100219.13;5091468;28;20055;-65
2023/06/07 06:55:28;;;;;;;8.00;3.47;;;;;;;22.74;63.87;100227.94;5091724;28;20072;-65
2023/06/07 06:57:57;;;;;;;8.38;3.70;;;;;;;22.75;63.87;100224.19;5091914;28;20231;-65
2023/06/07 07:00:27;;;;;;;8.98;3.70;;;;;;;22.76;63.85;100223.19;5091113;28;20128;-65
2023/06/07 07:02:55;;;;;;;8.75;3.60;;;;;;;22.77;63.82;100226.75;5090626;28;20048;-65
2023/06/07 07:05:24;;;;;;;8.63;4.03;;;;;;;22.78;63.87;100223.88;5090499;28;20445;-66
2023/06/07 07:07:56;;;;;;;11.57;3.83;;;;;;;22.79;63.72;100228.28;5091251;28;20083;-66
2023/06/07 07:10:24;;;;;;;8.30;3.75;;;;;;;22.81;63.87;100237.13;5090344;28;20052;-66
2023/06/07 07:12:52;;;;;;;8.50;3.70;;;;;;;22.81;63.89;100223.53;5091591;28;20134;-65
2023/06/07 07:15:21;;;;;;;10.05;3.70;;;;;;;22.84;63.76;100230.50;5091772;28;20401;-65
2023/06/07 07:17:51;;;;;;;6.43;3.63;;;;;;;22.84;63.84;100235.94;5091634;28;20076;-67
2023/06/07 07:20:19;;;;;;;8.25;3.65;;;;;;;22.84;63.76;100234.06;5091788;28;20040;-66
2023/06/07 07:22:48;;;;;;;7.50;3.70;;;;;;;22.85;63.72;100232.22;5091737;28;20052;-66
2023/06/07 07:25:17;;;;;;;8.38;3.97;;;;;;;22.87;63.83;100234.75;5092217;28;20533;-66
2023/06/07 07:27:46;;;;;;;8.45;3.80;;;;;;;22.87;63.69;100234.75;5091893;28;20080;-67
2023/06/07 07:30:15;;;;;;;7.40;3.60;;;;;;;22.88;63.64;100241.91;5091914;28;20055;-67
2023/06/07 07:32:43;;;;;;;8.07;3.90;;;;;;;22.89;63.50;100246.34;5091485;28;20389;-67
2023/06/07 07:35:13;;;;;;;8.55;3.92;;;;;;;22.88;63.52;100247.34;5091402;28;20101;-67
2023/06/07 07:37:42;;;;;;;6.88;3.90;;;;;;;22.87;63.48;100241.03;5091711;28;20044;-67
2023/06/07 07:40:12;;;;;;;8.05;3.72;;;;;;;22.89;63.32;100238.19;5091523;28;20060;-66
2023/06/07 07:42:41;;;;;;;9.13;3.63;;;;;;;22.91;63.37;100255.16;5091510;28;20047;-67
2023/06/07 07:45:10;;;;;;;5.93;3.53;;;;;;;22.92;63.55;100248.69;5091276;28;20048;-66
2023/06/07 07:47:38;;;;;;;9.25;3.30;;;;;;;22.92;63.51;100244.09;5091158;28;20052;-66
2023/06/07 07:50:07;;;;;;;9.23;3.50;;;;;;;22.94;63.46;100241.22;5091421;28;20139;-66
2023/06/07 07:52:37;;;;;;;8.68;3.80;;;;;;;22.94;63.48;100242.06;5091149;28;20074;-66
2023/06/07 07:55:07;;;;;;;8.23;3.90;;;;;;;22.96;63.17;100244.59;5091347;28;20091;-66
2023/06/07 07:57:36;;;;;;;5.75;3.03;;;;;;;22.97;63.42;100251.72;5091142;28;20130;-66
2023/06/07 08:00:06;;;;;;;8.57;3.33;;;;;;;22.98;63.35;100250.75;5091184;28;20189;-66
2023/06/07 08:02:35;;;;;;;7.70;3.42;;;;;;;22.99;63.31;100249.72;5090921;28;20046;-66
2023/06/07 08:05:06;;;;;;;8.35;3.47;;;;;;;22.99;63.34;100253.28;5094258;28;20139;-66
2023/06/07 08:07:35;;;;;;;7.60;3.50;;;;;;;23.00;63.27;100251.41;5095324;28;20105;-66
2023/06/07 08:10:05;;;;;;;6.82;3.33;;;;;;;23.01;63.29;100247.66;5095703;28;20520;-66
2023/06/07 08:12:34;;;;;;;8.25;3.72;;;;;;;23.01;63.12;100248.50;5095173;28;20125;-66
2023/06/07 08:15:02;;;;;;;7.18;3.35;;;;;;;23.02;63.27;100252.09;5095104;28;20048;-66
2023/06/07 08:17:30;;;;;;;6.13;3.17;;;;;;;23.03;63.15;100253.78;5095345;28;20087;-66
2023/06/07 08:19:59;;;;;;;7.28;3.30;;;;;;;23.03;63.03;100253.78;5095345;28;20155;-67
2023/06/07 08:22:27;;;;;;;6.32;3.25;;;;;;;23.03;63.18;100251.06;5095045;28;20059;-65
2023/06/07 08:24:55;;;;;;;6.50;3.20;;;;;;;23.04;63.09;100252.75;5095023;28;20048;-66
2023/06/07 08:27:24;;;;;;;7.32;3.20;;;;;;;23.05;63.08;100251.72;5094761;28;20101;-65
2023/06/07 08:29:53;;;;;;;8.15;3.53;;;;;;;23.06;63.15;100251.53;5094958;28;20044;-66
2023/06/07 08:32:21;;;;;;;7.65;3.88;;;;;;;23.07;63.06;100241.53;5094979;28;20048;-65
2023/06/07 08:34:49;;;;;;;7.93;3.53;;;;;;;23.08;62.99;100254.97;5094916;28;20048;-66
2023/06/07 08:37:17;;;;;;;8.32;3.78;;;;;;;23.09;62.99;100242.22;5094924;28;20048;-66
2023/06/07 08:39:46;;;;;;;6.10;3.15;;;;;;;23.09;62.91;100244.94;5094618;28;20055;-65
2023/06/07 08:42:15;;;;;;;5.80;3.42;;;;;;;23.10;62.92;100241.19;5094569;28;20062;-66
2023/06/07 08:44:44;;;;;;;8.15;3.40;;;;;;;23.11;62.80;100240.16;5095010;28;20080;-65
2023/06/07 08:47:13;;;;;;;5.15;3.30;;;;;;;23.11;62.88;100254.63;5094568;28;20040;-65
2023/06/07 08:49:43;;;;;;;7.82;3.47;;;;;;;23.10;62.89;100244.75;5094802;28;20044;-65
2023/06/07 08:52:12;;;;;;;5.88;3.20;;;;;;;23.12;62.77;100241.84;5094488;28;20485;-65
2023/06/07 08:54:46;;;;;;;5.93;3.28;;;;;;;23.13;62.59;100243.56;5094520;28;20130;-65
2023/06/07 08:57:16;;;;;;;5.28;3.28;;;;;;;23.14;62.65;100237.94;5094371;28;20040;-65
2023/06/07 08:59:48;;;;;;;6.38;3.38;;;;;;;23.14;62.78;100232.50;5094734;28;20056;-65
2023/06/07 09:02:19;;;;;;;6.75;3.30;;;;;;;23.16;62.79;100231.47;5094557;28;20047;-65
2023/06/07 09:04:47;;;;;;;6.65;3.30;;;;;;;23.16;62.63;100229.59;5094356;28;20059;-65
2023/06/07 09:07:16;;;;;;;8.43;3.53;;;;;;;23.16;62.61;100229.59;5094146;28;20505;-66
2023/06/07 09:09:44;;;;;;;6.82;3.33;;;;;;;23.18;62.51;100229.44;5093951;28;20078;-66
2023/06/07 09:12:13;;;;;;;4.57;3.22;;;;;;;23.19;62.54;100233.88;5094348;28;20051;-66
2023/06/07 09:14:41;;;;;;;5.30;3.33;;;;;;;23.20;62.48;100232.84;5093795;28;20113;-66
2023/06/07 09:17:11;;;;;;;5.50;3.15;;;;;;;23.21;62.45;100231.81;5094163;28;20044;-66
2023/06/07 09:19:40;;;;;;;5.43;3.05;;;;;;;23.22;62.60;100238.94;5093972;28;20043;-66
2023/06/07 09:22:11;;;;;;;6.82;3.05;;;;;;;23.22;62.59;100231.63;5094193;28;20047;-66
2023/06/07 09:24:40;;;;;;;5.05;3.30;;;;;;;23.23;62.59;100241.47;5093989;28;20044;-66
2023/06/07 09:27:09;;;;;;;5.78;3.08;;;;;;;23.24;62.58;100243.19;5093989;28;20047;-66
2023/06/07 09:29:42;;;;;;;5.97;3.50;;;;;;;23.26;62.50;100240.28;5093984;28;20056;-66
2023/06/07 09:32:23;;;;;;;6.10;3.17;;;;;;;23.26;62.56;100243.88;5093618;28;20040;-66
2023/06/07 09:34:53;;;;;;;5.38;2.95;;;;;;;23.27;62.41;100240.13;5093704;28;20520;-66
2023/06/07 09:37:21;;;;;;;5.10;3.38;;;;;;;23.29;62.59;100245.41;5093761;28;20052;-66
2023/06/07 09:39:53;;;;;;;5.78;3.40;;;;;;;23.29;62.71;100243.53;5093526;28;20477;-66
2023/06/07 09:42:21;;;;;;;5.05;3.45;;;;;;;23.29;62.59;100251.69;5093645;28;20051;-67
2023/06/07 09:44:49;;;;;;;5.97;3.38;;;;;;;23.30;62.68;100245.22;5093429;28;20069;-66
2023/06/07 09:47:23;;;;;;;5.15;3.08;;;;;;;23.30;62.46;100242.50;5093503;28;20463;-66
2023/06/07 09:49:55;;;;;;;5.47;3.40;;;;;;;23.30;62.63;100250.66;5093267;28;20048;-66
2023/06/07 09:52:25;;;;;;;6.43;3.40;;;;;;;23.31;62.57;100243.34;5093325;28;20552;-66
2023/06/07 09:54:56;;;;;;;5.95;3.20;;;;;;;23.32;62.46;100250.47;5093408;28;20121;-67
2023/06/07 09:57:32;;;;;;;7.22;3.40;;;;;;;23.31;62.37;100243.34;5093251;28;20131;-66
2023/06/07 10:00:13;;;;;;;5.95;3.50;;;;;;;23.31;62.51;100243.34;5093443;28;20409;-67
2023/06/07 10:02:44;;;;;;;6.40;3.75;;;;;;;23.28;62.39;100241.81;5093360;28;20176;-67
2023/06/07 10:05:13;;;;;;;6.45;3.95;;;;;;;23.29;62.57;100243.53;5093313;28;20062;-66
2023/06/07 10:07:44;;;;;;;7.30;3.88;;;;;;;23.28;62.44;100233.66;5093147;28;20048;-66
2023/06/07 10:10:21;;;;;;;5.65;4.18;;;;;;;23.27;62.73;100234.69;5093170;28;20044;-67
2023/06/07 10:12:52;;;;;;;5.07;4.00;;;;;;;23.27;62.58;100229.25;5093127;28;20048;-66
2023/06/07 10:15:24;;;;;;;6.72;4.32;;;;;;;23.28;62.58;100239.09;5093019;28;20040;-67
2023/06/07 10:17:56;;;;;;;5.68;3.30;;;;;;;23.28;62.56;100233.66;5092916;28;20497;-66
2023/06/07 10:20:29;;;;;;;7.18;4.47;;;;;;;23.30;62.58;100226.16;5092879;28;20048;-66
2023/06/07 10:23:03;;;;;;;5.32;3.50;;;;;;;23.31;62.65;100233.31;5092928;28;20481;-66
2023/06/07 10:25:37;;;;;;;5.93;3.47;;;;;;;23.32;62.51;100221.38;5092931;28;20075;-67
2023/06/07 10:28:20;;;;;;;6.75;3.40;;;;;;;23.33;62.35;100231.25;5092193;28;20048;-67
2023/06/07 10:30:53;;;;;;;5.85;3.75;;;;;;;23.34;62.35;100226.66;5092907;28;20146;-67
2023/06/07 10:33:25;;;;;;;6.32;3.80;;;;;;;23.35;62.24;100231.06;5092775;28;20055;-67
2023/06/07 10:35:54;;;;;;;6.13;3.78;;;;;;;23.36;62.15;100233.63;5092790;28;20044;-67
2023/06/07 10:38:24;;;;;;;5.20;3.25;;;;;;;23.36;62.32;100225.47;5092749;28;20059;-65
2023/06/07 10:40:53;;;;;;;5.03;3.70;;;;;;;23.37;62.26;100229.91;5092580;28;20086;-67
2023/06/07 10:43:21;;;;;;;6.68;3.53;;;;;;;23.37;62.05;100221.72;5092622;28;20072;-66
2023/06/07 10:46:23;;;;;;;6.03;3.60;;;;;;;23.39;62.21;100225.13;5092735;28;20055;-66
2023/06/07 10:48:54;;;;;;;6.22;3.88;;;;;;;23.41;62.22;100227.66;5092497;28;20040;-66
2023/06/07 10:52:02;;;;;;;6.85;4.03;;;;;;;23.42;62.22;100230.19;5092479;28;20044;-66
2023/06/07 10:54:32;;;;;;;5.97;3.60;;;;;;;23.44;62.34;100227.28;5074568;28;20088;-66
2023/06/07 10:57:03;;;;;;;5.45;3.50;;;;;;;23.45;62.12;100215.41;5092587;28;20044;-66
2023/06/07 10:59:32;;;;;;;6.07;3.47;;;;;;;23.46;62.08;100217.09;5092225;28;20074;-66
2023/06/07 11:02:22;;;;;;;6.15;3.53;;;;;;;23.48;61.99;100222.38;5092249;28;20044;-67
2023/06/07 11:04:54;;;;;;;5.70;3.80;;;;;;;23.48;62.12;100223.22;5092360;28;20048;-66
2023/06/07 11:07:27;;;;;;;6.40;3.67;;;;;;;23.49;62.00;100213.16;5092296;28;20052;-66
2023/06/07 11:10:33;;;;;;;5.93;3.47;;;;;;;23.51;61.87;100224.72;5092242;28;20051;-67
2023/06/07 11:13:03;;;;;;;5.85;3.55;;;;;;;23.51;61.75;100220.13;5092332;28;20050;-66
2023/06/07 11:15:35;;;;;;;5.72;4.05;;;;;;;23.53;61.60;100217.22;5092147;28;20067;-66
2023/06/07 11:18:08;;;;;;;5.82;3.75;;;;;;;23.54;61.80;100221.63;5091805;28;20048;-67
2023/06/07 11:20:51;;;;;;;5.47;3.70;;;;;;;23.56;61.67;100216.91;5092009;28;20055;-67
2023/06/07 11:23:24;;;;;;;5.70;3.63;;;;;;;23.56;61.60;100225.91;5091821;28;20047;-66
2023/06/07 11:25:56;;;;;;;5.50;3.47;;;;;;;23.58;61.57;100218.41;5092137;28;20044;-67
2023/06/07 11:28:26;;;;;;;5.88;3.60;;;;;;;23.60;61.47;100215.53;5091761;28;20044;-66
2023/06/07 11:30:56;;;;;;;5.70;3.90;;;;;;;23.60;61.49;100219.09;5091787;28;20048;-67
2023/06/07 11:33:25;;;;;;;5.50;3.60;;;;;;;23.62;61.48;100221.63;5091408;28;20083;-66
2023/06/07 11:35:56;;;;;;;5.32;3.38;;;;;;;23.63;61.14;100218.75;5091592;28;20385;-67
2023/06/07 11:38:26;;;;;;;6.18;3.60;;;;;;;23.64;61.54;100216.84;5091338;28;20052;-67